Skip Navigation LinksHome page > Weather > Current weather Skip Navigation Links

Current Weather

Raleigh-Durham Intl, Raleigh, N.C.

For information only: do not use for flight planning or navigation.
Latest weather
Observation time Friday, May 14, 2021 7:51 AM EDT
Local time Friday, May 14, 2021 8:54 AM EDT
Flight conditions Visual Meteorological Conditions
Winds
Wind speed calm
Visibility 10 mi.
Sky condition
Ceiling unlimited
Cloud layer few clouds 10,000 ft.
Temperature 52°F
Dewpoint 47°F
Altimeter 30.29 in.Hg
Pressure change last 3 hours-0.04 in.Hg
Pressure rising more quickly
Derived measurements
Relative humidity 83%
Density altitude -295 ft.
Sea-level pressure 30.28 in.Hg
Climate data
Temperature minimum, last 6 hours 41°F
Temperature maximum, last 6 hours 53°F
Remarks
Automated weather observing station with precipitation discriminator.
METAR KRDU 141151Z 00000KT 10SM FEW100 11/08 A3029 RMK AO2 SLP255 T01110083 10117 20050 53014

Settings

Location code

InnerDrive.Weather 4.0.6770.0 Release CLR 4.0.30319.42000
Copyright ©2018 Inner Drive Technology. All rights reserved. Portions Copyright ©1986-2018 David Braverman.

Find weather

Site navigation


Skip Navigation Links

Place info

Page info

PayPal - The safer, easier way to pay online!

Return home.

Copyright ©2021 Inner Drive Technology. Purveyors of fine, hand-crafted computer software. Page printed 2021-05-14T12:54:53 UTC.